sensor_id;sensor_type;location;lat;lon;timestamp;temperature;humidity
45785;DHT22;31489;51.404;5.474;2023-07-13T00:00:04;21.10;53.90
45785;DHT22;31489;51.404;5.474;2023-07-13T00:02:34;21.10;54.00
45785;DHT22;31489;51.404;5.474;2023-07-13T00:05:00;21.10;54.30
45785;DHT22;31489;51.404;5.474;2023-07-13T00:07:29;21.10;54.30
45785;DHT22;31489;51.404;5.474;2023-07-13T00:09:56;21.00;54.70
45785;DHT22;31489;51.404;5.474;2023-07-13T00:12:25;21.00;54.50
45785;DHT22;31489;51.404;5.474;2023-07-13T00:14:51;21.00;54.70
45785;DHT22;31489;51.404;5.474;2023-07-13T00:17:17;21.00;54.70
45785;DHT22;31489;51.404;5.474;2023-07-13T00:19:42;21.00;54.90
45785;DHT22;31489;51.404;5.474;2023-07-13T00:22:08;21.00;54.90
45785;DHT22;31489;51.404;5.474;2023-07-13T00:24:33;21.00;55.00
45785;DHT22;31489;51.404;5.474;2023-07-13T00:27:01;21.00;55.10
45785;DHT22;31489;51.404;5.474;2023-07-13T00:29:27;20.90;55.10
45785;DHT22;31489;51.404;5.474;2023-07-13T00:31:52;20.90;55.20
45785;DHT22;31489;51.404;5.474;2023-07-13T00:34:18;20.90;55.40
45785;DHT22;31489;51.404;5.474;2023-07-13T00:36:44;20.90;55.50
45785;DHT22;31489;51.404;5.474;2023-07-13T00:39:09;20.90;55.60
45785;DHT22;31489;51.404;5.474;2023-07-13T00:41:35;20.80;55.90
45785;DHT22;31489;51.404;5.474;2023-07-13T00:44:02;20.90;55.90
45785;DHT22;31489;51.404;5.474;2023-07-13T00:46:32;20.80;56.00
45785;DHT22;31489;51.404;5.474;2023-07-13T00:49:06;20.80;56.20
45785;DHT22;31489;51.404;5.474;2023-07-13T00:51:49;20.70;56.50
45785;DHT22;31489;51.404;5.474;2023-07-13T00:54:21;20.70;56.60
45785;DHT22;31489;51.404;5.474;2023-07-13T00:56:50;20.70;56.60
45785;DHT22;31489;51.404;5.474;2023-07-13T00:59:18;20.60;56.80
45785;DHT22;31489;51.404;5.474;2023-07-13T01:01:45;20.60;56.80
45785;DHT22;31489;51.404;5.474;2023-07-13T01:04:11;20.60;56.80
45785;DHT22;31489;51.404;5.474;2023-07-13T01:06:37;20.60;57.10
45785;DHT22;31489;51.404;5.474;2023-07-13T01:09:05;20.60;57.20
45785;DHT22;31489;51.404;5.474;2023-07-13T01:11:31;20.60;57.40
45785;DHT22;31489;51.404;5.474;2023-07-13T01:13:57;20.60;57.20
45785;DHT22;31489;51.404;5.474;2023-07-13T01:16:29;20.60;57.40
45785;DHT22;31489;51.404;5.474;2023-07-13T01:18:56;20.60;57.70
45785;DHT22;31489;51.404;5.474;2023-07-13T01:21:26;20.60;57.60
45785;DHT22;31489;51.404;5.474;2023-07-13T01:23:55;20.60;57.60
45785;DHT22;31489;51.404;5.474;2023-07-13T01:26:22;20.60;57.50
45785;DHT22;31489;51.404;5.474;2023-07-13T01:28:47;20.60;57.60
45785;DHT22;31489;51.404;5.474;2023-07-13T01:31:13;20.50;57.70
45785;DHT22;31489;51.404;5.474;2023-07-13T01:33:40;20.60;57.80
45785;DHT22;31489;51.404;5.474;2023-07-13T01:36:10;20.50;58.40
45785;DHT22;31489;51.404;5.474;2023-07-13T01:38:36;20.40;58.30
45785;DHT22;31489;51.404;5.474;2023-07-13T01:41:03;20.40;58.20
45785;DHT22;31489;51.404;5.474;2023-07-13T01:43:29;20.40;58.40
45785;DHT22;31489;51.404;5.474;2023-07-13T01:45:55;20.40;58.40
45785;DHT22;31489;51.404;5.474;2023-07-13T01:48:20;20.40;58.60
45785;DHT22;31489;51.404;5.474;2023-07-13T01:50:47;20.30;58.70
45785;DHT22;31489;51.404;5.474;2023-07-13T01:53:14;20.30;58.90
45785;DHT22;31489;51.404;5.474;2023-07-13T01:55:41;20.30;58.90
45785;DHT22;31489;51.404;5.474;2023-07-13T01:58:07;20.30;59.10
45785;DHT22;31489;51.404;5.474;2023-07-13T02:00:32;20.20;59.20
45785;DHT22;31489;51.404;5.474;2023-07-13T02:02:58;20.20;59.30
45785;DHT22;31489;51.404;5.474;2023-07-13T02:05:24;20.20;59.40
45785;DHT22;31489;51.404;5.474;2023-07-13T02:07:50;20.20;59.40
45785;DHT22;31489;51.404;5.474;2023-07-13T02:10:16;20.20;59.60
45785;DHT22;31489;51.404;5.474;2023-07-13T02:12:42;20.20;59.70
45785;DHT22;31489;51.404;5.474;2023-07-13T02:15:08;20.20;59.70
45785;DHT22;31489;51.404;5.474;2023-07-13T02:17:35;20.20;59.80
45785;DHT22;31489;51.404;5.474;2023-07-13T02:20:01;20.10;59.90
45785;DHT22;31489;51.404;5.474;2023-07-13T02:22:27;20.10;60.00
45785;DHT22;31489;51.404;5.474;2023-07-13T02:24:53;20.10;60.10
45785;DHT22;31489;51.404;5.474;2023-07-13T02:27:19;20.00;60.20
45785;DHT22;31489;51.404;5.474;2023-07-13T02:29:45;20.00;60.40
45785;DHT22;31489;51.404;5.474;2023-07-13T02:32:11;20.00;60.50
45785;DHT22;31489;51.404;5.474;2023-07-13T02:34:36;20.00;60.60
45785;DHT22;31489;51.404;5.474;2023-07-13T02:37:02;20.00;60.70
45785;DHT22;31489;51.404;5.474;2023-07-13T02:39:28;19.90;60.70
45785;DHT22;31489;51.404;5.474;2023-07-13T02:41:59;20.00;60.70
45785;DHT22;31489;51.404;5.474;2023-07-13T02:44:25;19.90;60.90
45785;DHT22;31489;51.404;5.474;2023-07-13T02:46:51;19.90;60.90
45785;DHT22;31489;51.404;5.474;2023-07-13T02:49:16;19.90;61.00
45785;DHT22;31489;51.404;5.474;2023-07-13T02:51:42;19.90;61.10
45785;DHT22;31489;51.404;5.474;2023-07-13T02:54:09;19.90;61.10
45785;DHT22;31489;51.404;5.474;2023-07-13T02:56:35;19.90;61.40
45785;DHT22;31489;51.404;5.474;2023-07-13T02:59:01;19.90;61.40
45785;DHT22;31489;51.404;5.474;2023-07-13T03:01:28;19.90;61.50
45785;DHT22;31489;51.404;5.474;2023-07-13T03:03:53;19.90;61.60
45785;DHT22;31489;51.404;5.474;2023-07-13T03:06:20;19.80;61.40
45785;DHT22;31489;51.404;5.474;2023-07-13T03:08:47;19.80;61.70
45785;DHT22;31489;51.404;5.474;2023-07-13T03:11:17;19.80;61.80
45785;DHT22;31489;51.404;5.474;2023-07-13T03:13:43;19.80;62.00
45785;DHT22;31489;51.404;5.474;2023-07-13T03:16:10;19.80;61.90
45785;DHT22;31489;51.404;5.474;2023-07-13T03:18:36;19.80;62.00
45785;DHT22;31489;51.404;5.474;2023-07-13T03:21:02;19.80;62.20
45785;DHT22;31489;51.404;5.474;2023-07-13T03:23:28;19.80;62.10
45785;DHT22;31489;51.404;5.474;2023-07-13T03:26:04;19.80;62.20
45785;DHT22;31489;51.404;5.474;2023-07-13T03:28:30;19.70;62.50
45785;DHT22;31489;51.404;5.474;2023-07-13T03:31:14;19.70;62.20
45785;DHT22;31489;51.404;5.474;2023-07-13T03:33:40;19.70;62.60
45785;DHT22;31489;51.404;5.474;2023-07-13T03:36:07;19.60;62.30
45785;DHT22;31489;51.404;5.474;2023-07-13T03:38:34;19.60;62.60
45785;DHT22;31489;51.404;5.474;2023-07-13T03:41:00;19.60;62.70
45785;DHT22;31489;51.404;5.474;2023-07-13T03:43:26;19.60;62.80
45785;DHT22;31489;51.404;5.474;2023-07-13T03:45:52;19.60;62.90
45785;DHT22;31489;51.404;5.474;2023-07-13T03:48:17;19.60;63.10
45785;DHT22;31489;51.404;5.474;2023-07-13T03:50:43;19.50;63.10
45785;DHT22;31489;51.404;5.474;2023-07-13T03:53:09;19.50;63.20
45785;DHT22;31489;51.404;5.474;2023-07-13T03:55:35;19.50;63.30
45785;DHT22;31489;51.404;5.474;2023-07-13T04:00:49;19.50;64.00
45785;DHT22;31489;51.404;5.474;2023-07-13T04:03:15;19.40;63.60
45785;DHT22;31489;51.404;5.474;2023-07-13T04:05:41;19.40;63.70
45785;DHT22;31489;51.404;5.474;2023-07-13T04:08:07;19.50;63.90
45785;DHT22;31489;51.404;5.474;2023-07-13T04:10:33;19.40;64.00
45785;DHT22;31489;51.404;5.474;2023-07-13T04:12:59;19.40;64.10
45785;DHT22;31489;51.404;5.474;2023-07-13T04:15:24;19.40;64.30
45785;DHT22;31489;51.404;5.474;2023-07-13T04:17:50;19.40;64.50
45785;DHT22;31489;51.404;5.474;2023-07-13T04:20:16;19.40;64.70
45785;DHT22;31489;51.404;5.474;2023-07-13T04:22:42;19.40;64.90
45785;DHT22;31489;51.404;5.474;2023-07-13T04:25:07;19.30;64.90
45785;DHT22;31489;51.404;5.474;2023-07-13T04:27:33;19.30;65.00
45785;DHT22;31489;51.404;5.474;2023-07-13T04:29:59;19.30;65.30
45785;DHT22;31489;51.404;5.474;2023-07-13T04:32:24;19.30;65.40
45785;DHT22;31489;51.404;5.474;2023-07-13T04:34:50;19.30;65.60
45785;DHT22;31489;51.404;5.474;2023-07-13T04:37:20;19.30;65.80
45785;DHT22;31489;51.404;5.474;2023-07-13T04:39:45;19.30;65.90
45785;DHT22;31489;51.404;5.474;2023-07-13T04:42:11;19.30;66.20
45785;DHT22;31489;51.404;5.474;2023-07-13T04:44:37;19.30;66.30
45785;DHT22;31489;51.404;5.474;2023-07-13T04:47:02;19.30;66.50
45785;DHT22;31489;51.404;5.474;2023-07-13T04:49:28;19.30;66.70
45785;DHT22;31489;51.404;5.474;2023-07-13T04:51:54;19.40;66.80
45785;DHT22;31489;51.404;5.474;2023-07-13T04:54:20;19.40;66.80
45785;DHT22;31489;51.404;5.474;2023-07-13T04:56:47;19.40;66.90
45785;DHT22;31489;51.404;5.474;2023-07-13T04:59:13;19.50;67.10
45785;DHT22;31489;51.404;5.474;2023-07-13T05:01:39;19.60;67.10
45785;DHT22;31489;51.404;5.474;2023-07-13T05:04:06;19.60;66.90
45785;DHT22;31489;51.404;5.474;2023-07-13T05:06:32;19.70;67.10
45785;DHT22;31489;51.404;5.474;2023-07-13T05:08:57;19.70;67.30
45785;DHT22;31489;51.404;5.474;2023-07-13T05:11:23;19.80;67.40
45785;DHT22;31489;51.404;5.474;2023-07-13T05:13:49;19.80;67.40
45785;DHT22;31489;51.404;5.474;2023-07-13T05:16:15;19.90;67.40
45785;DHT22;31489;51.404;5.474;2023-07-13T05:18:40;19.90;67.50
45785;DHT22;31489;51.404;5.474;2023-07-13T05:21:08;20.00;67.40
45785;DHT22;31489;51.404;5.474;2023-07-13T05:23:34;20.10;67.50
45785;DHT22;31489;51.404;5.474;2023-07-13T05:26:01;20.10;67.30
45785;DHT22;31489;51.404;5.474;2023-07-13T05:28:28;20.20;67.40
45785;DHT22;31489;51.404;5.474;2023-07-13T05:30:54;20.20;67.40
45785;DHT22;31489;51.404;5.474;2023-07-13T05:33:20;20.20;67.40
45785;DHT22;31489;51.404;5.474;2023-07-13T05:35:46;20.30;67.30
45785;DHT22;31489;51.404;5.474;2023-07-13T05:38:12;20.30;67.20
45785;DHT22;31489;51.404;5.474;2023-07-13T05:40:37;20.30;67.20
45785;DHT22;31489;51.404;5.474;2023-07-13T05:43:03;20.30;67.10
45785;DHT22;31489;51.404;5.474;2023-07-13T05:45:29;20.30;67.20
45785;DHT22;31489;51.404;5.474;2023-07-13T05:47:55;20.40;67.30
45785;DHT22;31489;51.404;5.474;2023-07-13T05:50:20;20.40;67.20
45785;DHT22;31489;51.404;5.474;2023-07-13T05:52:46;20.40;67.20
45785;DHT22;31489;51.404;5.474;2023-07-13T05:55:12;20.50;67.20
45785;DHT22;31489;51.404;5.474;2023-07-13T05:57:38;20.50;67.00
45785;DHT22;31489;51.404;5.474;2023-07-13T06:00:04;20.50;66.90
45785;DHT22;31489;51.404;5.474;2023-07-13T06:02:30;20.50;67.10
45785;DHT22;31489;51.404;5.474;2023-07-13T06:04:56;20.50;66.90
45785;DHT22;31489;51.404;5.474;2023-07-13T06:07:21;20.50;67.10
45785;DHT22;31489;51.404;5.474;2023-07-13T06:09:47;20.50;67.10
45785;DHT22;31489;51.404;5.474;2023-07-13T06:12:13;20.50;66.90
45785;DHT22;31489;51.404;5.474;2023-07-13T06:14:38;20.50;66.90
45785;DHT22;31489;51.404;5.474;2023-07-13T06:17:04;20.60;67.00
45785;DHT22;31489;51.404;5.474;2023-07-13T06:19:30;20.60;67.00
45785;DHT22;31489;51.404;5.474;2023-07-13T06:21:56;20.60;67.00
45785;DHT22;31489;51.404;5.474;2023-07-13T06:24:24;20.60;66.90
45785;DHT22;31489;51.404;5.474;2023-07-13T06:26:49;20.60;66.90
45785;DHT22;31489;51.404;5.474;2023-07-13T06:29:15;20.60;66.90
45785;DHT22;31489;51.404;5.474;2023-07-13T06:31:41;20.60;66.90
45785;DHT22;31489;51.404;5.474;2023-07-13T06:34:06;20.60;67.10
45785;DHT22;31489;51.404;5.474;2023-07-13T06:36:32;20.60;67.30
45785;DHT22;31489;51.404;5.474;2023-07-13T06:38:58;20.70;67.30
45785;DHT22;31489;51.404;5.474;2023-07-13T06:41:23;20.70;67.20
45785;DHT22;31489;51.404;5.474;2023-07-13T06:43:51;20.70;67.10
45785;DHT22;31489;51.404;5.474;2023-07-13T06:46:18;20.70;67.10
45785;DHT22;31489;51.404;5.474;2023-07-13T06:48:43;20.70;67.10
45785;DHT22;31489;51.404;5.474;2023-07-13T06:51:09;20.80;67.10
45785;DHT22;31489;51.404;5.474;2023-07-13T06:53:35;20.80;67.30
45785;DHT22;31489;51.404;5.474;2023-07-13T06:56:00;20.80;67.20
45785;DHT22;31489;51.404;5.474;2023-07-13T06:58:26;20.80;67.10
45785;DHT22;31489;51.404;5.474;2023-07-13T07:00:52;20.80;67.20
45785;DHT22;31489;51.404;5.474;2023-07-13T07:03:18;20.80;67.10
45785;DHT22;31489;51.404;5.474;2023-07-13T07:05:43;20.80;67.10
45785;DHT22;31489;51.404;5.474;2023-07-13T07:08:12;20.80;67.20
45785;DHT22;31489;51.404;5.474;2023-07-13T07:10:37;20.80;67.20
45785;DHT22;31489;51.404;5.474;2023-07-13T07:13:03;20.90;67.10
45785;DHT22;31489;51.404;5.474;2023-07-13T07:15:29;20.90;67.20
45785;DHT22;31489;51.404;5.474;2023-07-13T07:17:55;20.90;67.00
45785;DHT22;31489;51.404;5.474;2023-07-13T07:20:21;20.90;67.10
45785;DHT22;31489;51.404;5.474;2023-07-13T07:22:47;20.90;67.00
45785;DHT22;31489;51.404;5.474;2023-07-13T07:25:13;21.00;67.10
45785;DHT22;31489;51.404;5.474;2023-07-13T07:27:39;21.00;67.20
45785;DHT22;31489;51.404;5.474;2023-07-13T07:30:05;21.00;67.30
45785;DHT22;31489;51.404;5.474;2023-07-13T07:32:31;21.00;67.20
45785;DHT22;31489;51.404;5.474;2023-07-13T07:34:57;21.10;67.20
45785;DHT22;31489;51.404;5.474;2023-07-13T07:37:23;21.10;67.60
45785;DHT22;31489;51.404;5.474;2023-07-13T07:39:49;21.20;67.40
45785;DHT22;31489;51.404;5.474;2023-07-13T07:42:15;21.20;67.20
45785;DHT22;31489;51.404;5.474;2023-07-13T07:44:41;21.30;67.30
45785;DHT22;31489;51.404;5.474;2023-07-13T07:47:08;21.40;67.30
45785;DHT22;31489;51.404;5.474;2023-07-13T07:49:35;21.40;66.80
45785;DHT22;31489;51.404;5.474;2023-07-13T07:52:00;21.50;66.70
45785;DHT22;31489;51.404;5.474;2023-07-13T07:54:29;21.50;66.60
45785;DHT22;31489;51.404;5.474;2023-07-13T07:56:54;21.60;66.50
45785;DHT22;31489;51.404;5.474;2023-07-13T07:59:20;21.60;66.40
45785;DHT22;31489;51.404;5.474;2023-07-13T08:01:46;21.70;66.30
45785;DHT22;31489;51.404;5.474;2023-07-13T08:04:13;21.70;66.50
45785;DHT22;31489;51.404;5.474;2023-07-13T08:06:39;21.80;66.60
45785;DHT22;31489;51.404;5.474;2023-07-13T08:09:04;21.90;66.30
45785;DHT22;31489;51.404;5.474;2023-07-13T08:11:31;21.90;66.10
45785;DHT22;31489;51.404;5.474;2023-07-13T08:13:57;22.00;65.80
45785;DHT22;31489;51.404;5.474;2023-07-13T08:16:23;22.10;65.70
45785;DHT22;31489;51.404;5.474;2023-07-13T08:18:49;22.10;65.70
45785;DHT22;31489;51.404;5.474;2023-07-13T08:21:15;22.20;65.60
45785;DHT22;31489;51.404;5.474;2023-07-13T08:23:41;22.30;65.20
45785;DHT22;31489;51.404;5.474;2023-07-13T08:26:07;22.30;64.60
45785;DHT22;31489;51.404;5.474;2023-07-13T08:28:33;22.40;64.80
45785;DHT22;31489;51.404;5.474;2023-07-13T08:31:06;22.40;64.40
45785;DHT22;31489;51.404;5.474;2023-07-13T08:33:36;22.40;63.80
45785;DHT22;31489;51.404;5.474;2023-07-13T08:36:03;22.50;63.80
45785;DHT22;31489;51.404;5.474;2023-07-13T08:38:30;22.50;63.80
45785;DHT22;31489;51.404;5.474;2023-07-13T08:40:56;22.50;63.80
45785;DHT22;31489;51.404;5.474;2023-07-13T08:43:28;22.60;63.90
45785;DHT22;31489;51.404;5.474;2023-07-13T08:48:41;22.80;63.50
45785;DHT22;31489;51.404;5.474;2023-07-13T08:54:00;22.90;63.00
45785;DHT22;31489;51.404;5.474;2023-07-13T08:56:30;22.90;62.90
45785;DHT22;31489;51.404;5.474;2023-07-13T08:59:01;22.90;62.40
45785;DHT22;31489;51.404;5.474;2023-07-13T09:04:15;23.00;62.10
45785;DHT22;31489;51.404;5.474;2023-07-13T09:14:49;23.10;61.90
45785;DHT22;31489;51.404;5.474;2023-07-13T09:17:23;23.20;61.80
45785;DHT22;31489;51.404;5.474;2023-07-13T09:19:58;23.20;61.70
45785;DHT22;31489;51.404;5.474;2023-07-13T09:22:26;23.30;61.20
45785;DHT22;31489;51.404;5.474;2023-07-13T09:25:39;23.40;61.00
45785;DHT22;31489;51.404;5.474;2023-07-13T09:27:47;23.40;60.70
45785;DHT22;31489;51.404;5.474;2023-07-13T09:32:47;23.40;61.00
45785;DHT22;31489;51.404;5.474;2023-07-13T09:35:20;23.40;61.00
45785;DHT22;31489;51.404;5.474;2023-07-13T09:37:47;23.50;61.00
45785;DHT22;31489;51.404;5.474;2023-07-13T09:43:14;23.60;60.60
45785;DHT22;31489;51.404;5.474;2023-07-13T09:45:41;23.70;60.50
45785;DHT22;31489;51.404;5.474;2023-07-13T09:48:14;23.70;60.60
45785;DHT22;31489;51.404;5.474;2023-07-13T09:50:41;23.70;60.70
45785;DHT22;31489;51.404;5.474;2023-07-13T09:53:18;23.90;60.20
45785;DHT22;31489;51.404;5.474;2023-07-13T09:55:46;24.00;59.90
45785;DHT22;31489;51.404;5.474;2023-07-13T09:58:21;24.00;59.90
45785;DHT22;31489;51.404;5.474;2023-07-13T10:01:14;24.10;59.10
45785;DHT22;31489;51.404;5.474;2023-07-13T10:03:52;24.20;58.90
45785;DHT22;31489;51.404;5.474;2023-07-13T10:06:20;24.20;58.60
45785;DHT22;31489;51.404;5.474;2023-07-13T10:08:52;24.20;58.80
45785;DHT22;31489;51.404;5.474;2023-07-13T10:11:21;24.20;58.90
45785;DHT22;31489;51.404;5.474;2023-07-13T10:13:59;24.20;58.70
45785;DHT22;31489;51.404;5.474;2023-07-13T10:16:28;24.30;58.60
45785;DHT22;31489;51.404;5.474;2023-07-13T10:19:42;24.30;58.80
45785;DHT22;31489;51.404;5.474;2023-07-13T10:21:58;24.40;58.40
45785;DHT22;31489;51.404;5.474;2023-07-13T10:24:33;24.40;58.10
45785;DHT22;31489;51.404;5.474;2023-07-13T10:29:45;24.50;57.70
45785;DHT22;31489;51.404;5.474;2023-07-13T10:32:12;24.60;56.80
45785;DHT22;31489;51.404;5.474;2023-07-13T10:34:40;24.70;57.10
45785;DHT22;31489;51.404;5.474;2023-07-13T10:37:21;24.80;56.80
45785;DHT22;31489;51.404;5.474;2023-07-13T10:39:50;24.90;56.40
45785;DHT22;31489;51.404;5.474;2023-07-13T10:42:27;25.00;56.30
45785;DHT22;31489;51.404;5.474;2023-07-13T10:44:54;25.10;55.90
45785;DHT22;31489;51.404;5.474;2023-07-13T10:47:20;25.10;55.90
45785;DHT22;31489;51.404;5.474;2023-07-13T10:49:47;25.10;55.40
45785;DHT22;31489;51.404;5.474;2023-07-13T10:53:00;25.20;55.10
45785;DHT22;31489;51.404;5.474;2023-07-13T10:58:24;25.10;56.80
45785;DHT22;31489;51.404;5.474;2023-07-13T11:01:14;24.90;57.40
45785;DHT22;31489;51.404;5.474;2023-07-13T11:06:10;24.80;59.50
45785;DHT22;31489;51.404;5.474;2023-07-13T11:08:50;25.00;59.30
45785;DHT22;31489;51.404;5.474;2023-07-13T11:11:33;25.10;57.80
45785;DHT22;31489;51.404;5.474;2023-07-13T11:14:01;25.40;58.90
45785;DHT22;31489;51.404;5.474;2023-07-13T11:16:36;25.80;58.10
45785;DHT22;31489;51.404;5.474;2023-07-13T11:21:28;26.20;57.20
45785;DHT22;31489;51.404;5.474;2023-07-13T11:24:19;26.40;56.30
45785;DHT22;31489;51.404;5.474;2023-07-13T11:26:52;26.50;55.00
45785;DHT22;31489;51.404;5.474;2023-07-13T11:31:52;26.50;54.20
45785;DHT22;31489;51.404;5.474;2023-07-13T11:34:24;26.50;53.80
45785;DHT22;31489;51.404;5.474;2023-07-13T11:36:51;26.50;53.40
45785;DHT22;31489;51.404;5.474;2023-07-13T11:39:21;26.50;53.90
45785;DHT22;31489;51.404;5.474;2023-07-13T11:41:57;26.60;52.90
45785;DHT22;31489;51.404;5.474;2023-07-13T11:44:25;26.70;52.40
45785;DHT22;31489;51.404;5.474;2023-07-13T11:46:53;26.70;52.20
45785;DHT22;31489;51.404;5.474;2023-07-13T11:49:24;26.70;51.90
45785;DHT22;31489;51.404;5.474;2023-07-13T11:51:51;26.70;51.50
45785;DHT22;31489;51.404;5.474;2023-07-13T11:54:29;26.70;51.60
45785;DHT22;31489;51.404;5.474;2023-07-13T11:57:31;26.80;51.40
45785;DHT22;31489;51.404;5.474;2023-07-13T12:00:09;27.00;51.30
45785;DHT22;31489;51.404;5.474;2023-07-13T12:02:39;27.10;51.00
45785;DHT22;31489;51.404;5.474;2023-07-13T12:05:10;27.30;50.10
45785;DHT22;31489;51.404;5.474;2023-07-13T12:07:38;27.40;49.10
45785;DHT22;31489;51.404;5.474;2023-07-13T12:10:15;27.60;48.60
45785;DHT22;31489;51.404;5.474;2023-07-13T12:12:48;27.70;48.40
45785;DHT22;31489;51.404;5.474;2023-07-13T12:15:14;27.90;47.50
45785;DHT22;31489;51.404;5.474;2023-07-13T12:17:41;28.00;48.00
45785;DHT22;31489;51.404;5.474;2023-07-13T12:20:27;28.20;47.40
45785;DHT22;31489;51.404;5.474;2023-07-13T12:22:54;28.40;47.10
45785;DHT22;31489;51.404;5.474;2023-07-13T12:25:28;28.40;46.10
45785;DHT22;31489;51.404;5.474;2023-07-13T12:27:55;28.50;45.70
45785;DHT22;31489;51.404;5.474;2023-07-13T12:30:30;28.60;46.00
45785;DHT22;31489;51.404;5.474;2023-07-13T12:35:24;28.80;44.60
45785;DHT22;31489;51.404;5.474;2023-07-13T12:37:51;28.90;44.90
45785;DHT22;31489;51.404;5.474;2023-07-13T12:40:26;29.00;44.90
45785;DHT22;31489;51.404;5.474;2023-07-13T12:42:52;29.00;44.10
45785;DHT22;31489;51.404;5.474;2023-07-13T12:45:26;29.00;44.60
45785;DHT22;31489;51.404;5.474;2023-07-13T12:48:04;28.90;44.10
45785;DHT22;31489;51.404;5.474;2023-07-13T12:50:42;28.80;44.20
45785;DHT22;31489;51.404;5.474;2023-07-13T12:53:17;28.60;44.60
45785;DHT22;31489;51.404;5.474;2023-07-13T12:55:50;28.40;45.10
45785;DHT22;31489;51.404;5.474;2023-07-13T12:58:34;28.10;45.20
45785;DHT22;31489;51.404;5.474;2023-07-13T13:01:02;27.80;46.00
45785;DHT22;31489;51.404;5.474;2023-07-13T13:08:51;27.00;48.70
45785;DHT22;31489;51.404;5.474;2023-07-13T13:11:20;26.70;49.50
45785;DHT22;31489;51.404;5.474;2023-07-13T13:13:46;26.50;51.70
45785;DHT22;31489;51.404;5.474;2023-07-13T13:18:54;26.00;52.30
45785;DHT22;31489;51.404;5.474;2023-07-13T13:21:20;25.80;52.70
45785;DHT22;31489;51.404;5.474;2023-07-13T13:23:46;25.70;52.60
45785;DHT22;31489;51.404;5.474;2023-07-13T13:26:14;25.50;52.70
45785;DHT22;31489;51.404;5.474;2023-07-13T13:28:43;25.40;53.20
45785;DHT22;31489;51.404;5.474;2023-07-13T13:31:10;25.20;53.20
45785;DHT22;31489;51.404;5.474;2023-07-13T13:33:42;25.10;53.60
45785;DHT22;31489;51.404;5.474;2023-07-13T13:36:16;25.00;54.10
45785;DHT22;31489;51.404;5.474;2023-07-13T13:38:43;25.00;54.70
45785;DHT22;31489;51.404;5.474;2023-07-13T13:41:13;24.90;54.70
45785;DHT22;31489;51.404;5.474;2023-07-13T13:43:40;24.90;55.40
45785;DHT22;31489;51.404;5.474;2023-07-13T13:46:17;24.80;55.00
45785;DHT22;31489;51.404;5.474;2023-07-13T13:48:44;24.90;55.40
45785;DHT22;31489;51.404;5.474;2023-07-13T13:51:16;24.90;55.00
45785;DHT22;31489;51.404;5.474;2023-07-13T13:53:42;24.80;55.20
45785;DHT22;31489;51.404;5.474;2023-07-13T13:56:08;24.80;55.10
45785;DHT22;31489;51.404;5.474;2023-07-13T13:58:34;24.80;55.20
45785;DHT22;31489;51.404;5.474;2023-07-13T14:01:00;24.80;55.20
45785;DHT22;31489;51.404;5.474;2023-07-13T14:03:26;24.80;54.70
45785;DHT22;31489;51.404;5.474;2023-07-13T14:05:53;24.80;54.40
45785;DHT22;31489;51.404;5.474;2023-07-13T14:08:21;24.70;54.60
45785;DHT22;31489;51.404;5.474;2023-07-13T14:10:51;24.70;55.00
45785;DHT22;31489;51.404;5.474;2023-07-13T14:13:21;24.70;55.40
45785;DHT22;31489;51.404;5.474;2023-07-13T14:15:48;24.70;55.30
45785;DHT22;31489;51.404;5.474;2023-07-13T14:18:14;24.70;55.50
45785;DHT22;31489;51.404;5.474;2023-07-13T14:20:47;24.60;55.80
45785;DHT22;31489;51.404;5.474;2023-07-13T14:23:15;24.50;56.00
45785;DHT22;31489;51.404;5.474;2023-07-13T14:25:42;24.50;56.10
45785;DHT22;31489;51.404;5.474;2023-07-13T14:30:42;24.40;56.00
45785;DHT22;31489;51.404;5.474;2023-07-13T14:33:11;24.40;56.00
45785;DHT22;31489;51.404;5.474;2023-07-13T14:35:37;24.30;56.10
45785;DHT22;31489;51.404;5.474;2023-07-13T14:38:03;24.30;56.30
45785;DHT22;31489;51.404;5.474;2023-07-13T14:40:31;24.20;56.40
45785;DHT22;31489;51.404;5.474;2023-07-13T14:42:57;24.20;56.50
45785;DHT22;31489;51.404;5.474;2023-07-13T14:45:24;24.20;56.50
45785;DHT22;31489;51.404;5.474;2023-07-13T14:47:50;24.20;56.60
45785;DHT22;31489;51.404;5.474;2023-07-13T14:50:19;24.20;56.50
45785;DHT22;31489;51.404;5.474;2023-07-13T14:52:47;24.20;56.40
45785;DHT22;31489;51.404;5.474;2023-07-13T14:55:15;24.20;56.40
45785;DHT22;31489;51.404;5.474;2023-07-13T14:57:41;24.20;56.30
45785;DHT22;31489;51.404;5.474;2023-07-13T15:02:41;24.20;56.50
45785;DHT22;31489;51.404;5.474;2023-07-13T15:05:25;24.20;56.30
45785;DHT22;31489;51.404;5.474;2023-07-13T15:07:53;24.30;56.80
45785;DHT22;31489;51.404;5.474;2023-07-13T15:10:22;24.40;56.50
45785;DHT22;31489;51.404;5.474;2023-07-13T15:12:48;24.50;56.20
45785;DHT22;31489;51.404;5.474;2023-07-13T15:15:14;24.60;55.80
45785;DHT22;31489;51.404;5.474;2023-07-13T15:17:41;24.70;55.70
45785;DHT22;31489;51.404;5.474;2023-07-13T15:22:49;24.90;54.50
45785;DHT22;31489;51.404;5.474;2023-07-13T15:25:18;25.00;54.90
45785;DHT22;31489;51.404;5.474;2023-07-13T15:27:46;25.00;54.40
45785;DHT22;31489;51.404;5.474;2023-07-13T15:30:13;25.10;54.40
45785;DHT22;31489;51.404;5.474;2023-07-13T15:32:41;25.20;54.30
45785;DHT22;31489;51.404;5.474;2023-07-13T15:35:17;25.20;54.20
45785;DHT22;31489;51.404;5.474;2023-07-13T15:37:43;25.30;54.50
45785;DHT22;31489;51.404;5.474;2023-07-13T15:40:10;25.40;54.90
45785;DHT22;31489;51.404;5.474;2023-07-13T15:42:37;25.40;54.80
45785;DHT22;31489;51.404;5.474;2023-07-13T15:45:18;25.50;54.50
45785;DHT22;31489;51.404;5.474;2023-07-13T15:47:45;25.50;54.30
45785;DHT22;31489;51.404;5.474;2023-07-13T15:50:19;25.60;54.20
45785;DHT22;31489;51.404;5.474;2023-07-13T15:52:51;25.70;53.90
45785;DHT22;31489;51.404;5.474;2023-07-13T15:55:17;25.70;53.90
45785;DHT22;31489;51.404;5.474;2023-07-13T15:57:50;25.70;53.60
45785;DHT22;31489;51.404;5.474;2023-07-13T16:00:23;25.60;53.40
45785;DHT22;31489;51.404;5.474;2023-07-13T16:02:50;25.60;53.50
45785;DHT22;31489;51.404;5.474;2023-07-13T16:05:17;25.50;53.50
45785;DHT22;31489;51.404;5.474;2023-07-13T16:07:47;25.50;53.60
45785;DHT22;31489;51.404;5.474;2023-07-13T16:10:15;25.40;53.30
45785;DHT22;31489;51.404;5.474;2023-07-13T16:12:42;25.40;53.50
45785;DHT22;31489;51.404;5.474;2023-07-13T16:15:19;25.30;53.80
45785;DHT22;31489;51.404;5.474;2023-07-13T16:17:46;25.20;54.00
45785;DHT22;31489;51.404;5.474;2023-07-13T16:20:13;25.20;54.10
45785;DHT22;31489;51.404;5.474;2023-07-13T16:22:40;25.10;54.30
45785;DHT22;31489;51.404;5.474;2023-07-13T16:25:21;25.10;54.60
45785;DHT22;31489;51.404;5.474;2023-07-13T16:27:50;25.00;54.80
45785;DHT22;31489;51.404;5.474;2023-07-13T16:30:20;25.00;54.00
45785;DHT22;31489;51.404;5.474;2023-07-13T16:32:59;25.00;54.00